createdAt,value
2018-05-07T00:01:05.707Z,91.35
2018-05-07T00:02:12.107Z,91.99
2018-05-07T00:03:18.435Z,92.00
2018-05-07T00:04:24.656Z,91.75
2018-05-07T00:05:30.943Z,91.82
2018-05-07T00:06:37.150Z,91.63
2018-05-07T00:07:43.386Z,91.63
2018-05-07T00:08:49.366Z,92.00
2018-05-07T00:09:55.675Z,92.10
2018-05-07T00:11:01.904Z,91.76
2018-05-07T00:12:07.933Z,92.34
2018-05-07T00:13:14.408Z,92.31
2018-05-07T00:14:21.131Z,92.03
2018-05-07T00:15:27.330Z,92.18
2018-05-07T00:16:34.457Z,92.10
2018-05-07T00:17:40.703Z,92.68
2018-05-07T00:18:47.007Z,92.78
2018-05-07T00:19:53.279Z,93.53
2018-05-07T00:20:59.537Z,93.43
2018-05-07T00:22:05.813Z,93.55
2018-05-07T00:23:12.064Z,93.58
2018-05-07T00:24:18.361Z,93.35
2018-05-07T00:25:24.548Z,93.09
2018-05-07T00:26:30.933Z,92.94
2018-05-07T00:27:37.055Z,91.96
2018-05-07T00:28:43.291Z,92.57
2018-05-07T00:29:49.515Z,92.03
2018-05-07T00:30:55.985Z,92.42
2018-05-07T00:32:02.232Z,92.78
2018-05-07T00:33:09.453Z,92.99
2018-05-07T00:34:17.346Z,93.17
2018-05-07T00:35:28.229Z,93.42
2018-05-07T00:36:37.903Z,93.60
2018-05-07T00:37:44.137Z,93.86
2018-05-07T00:38:50.638Z,93.89
2018-05-07T00:39:56.850Z,93.67
2018-05-07T00:41:03.053Z,94.22
2018-05-07T00:42:09.260Z,94.59
2018-05-07T00:43:15.471Z,94.42
2018-05-07T00:44:21.722Z,94.33
2018-05-07T00:45:27.986Z,94.62
2018-05-07T00:46:34.310Z,94.48
2018-05-07T00:47:40.507Z,93.42
2018-05-07T00:48:47.879Z,94.17
2018-05-07T00:49:54.065Z,94.72
2018-05-07T00:51:00.272Z,93.75
2018-05-07T00:52:06.506Z,93.73
2018-05-07T00:53:12.795Z,92.54
2018-05-07T00:54:19.095Z,92.34
2018-05-07T00:55:25.303Z,91.48
2018-05-07T00:56:31.526Z,91.93
2018-05-07T00:57:37.768Z,92.44
2018-05-07T00:58:44.060Z,92.95
2018-05-07T00:59:50.246Z,92.60
2018-05-07T01:00:56.458Z,92.77
2018-05-07T01:02:01.423Z,94.74
2018-05-07T01:03:07.808Z,93.98
2018-05-07T01:04:14.714Z,93.20
2018-05-07T01:05:21.670Z,92.88
2018-05-07T01:06:28.423Z,93.35
2018-05-07T01:07:34.635Z,93.50
2018-05-07T01:08:40.550Z,94.88
2018-05-07T01:09:46.845Z,95.62
2018-05-07T01:10:53.031Z,95.81
2018-05-07T01:11:59.249Z,95.78
2018-05-07T01:13:05.439Z,95.52
2018-05-07T01:14:11.675Z,95.53
2018-05-07T01:15:17.895Z,94.95
2018-05-07T01:16:24.219Z,94.87
2018-05-07T01:17:30.394Z,95.12
2018-05-07T01:18:36.657Z,95.08
2018-05-07T01:19:42.983Z,95.34
2018-05-07T01:20:49.251Z,95.69
2018-05-07T01:22:02.303Z,96.46
2018-05-07T01:23:08.548Z,97.08
2018-05-07T01:24:14.735Z,96.61
2018-05-07T01:25:20.945Z,96.38
2018-05-07T01:26:26.923Z,96.25
2018-05-07T01:27:33.178Z,96.23
2018-05-07T01:28:39.401Z,96.44
2018-05-07T01:29:45.463Z,96.66
2018-05-07T01:30:51.375Z,96.71
2018-05-07T01:31:58.083Z,95.74
2018-05-07T01:33:04.331Z,95.45
2018-05-07T01:34:10.340Z,94.99
2018-05-07T01:35:16.623Z,94.59
2018-05-07T01:36:24.081Z,95.17
2018-05-07T01:37:30.263Z,94.79
2018-05-07T01:38:36.595Z,95.50
2018-05-07T01:39:42.782Z,95.04
2018-05-07T01:40:49.927Z,95.49
2018-05-07T01:41:57.038Z,95.72
2018-05-07T01:43:03.952Z,96.54
2018-05-07T01:44:11.668Z,97.07
2018-05-07T01:45:18.042Z,96.63
2018-05-07T01:46:23.663Z,96.29
2018-05-07T01:47:29.947Z,96.16
2018-05-07T01:48:36.192Z,95.97
2018-05-07T01:49:42.495Z,96.72
2018-05-07T01:50:48.781Z,95.43
2018-05-07T01:51:54.995Z,95.33
2018-05-07T01:53:02.162Z,94.25
2018-05-07T01:54:09.383Z,94.25
2018-05-07T01:55:16.578Z,94.93
2018-05-07T01:56:22.783Z,94.96
2018-05-07T01:57:29.115Z,95.50
2018-05-07T01:58:36.156Z,95.38
2018-05-07T01:59:43.073Z,96.16
2018-05-07T02:00:49.268Z,97.48
2018-05-07T02:01:55.459Z,98.15
2018-05-07T02:03:02.676Z,97.54
2018-05-07T02:04:09.791Z,96.85
2018-05-07T02:05:16.054Z,95.79
2018-05-07T02:06:22.875Z,95.19
2018-05-07T02:07:30.131Z,94.60
2018-05-07T02:08:36.434Z,95.44
2018-05-07T02:09:42.623Z,96.69
2018-05-07T02:10:49.045Z,96.23
2018-05-07T02:11:55.709Z,96.88
2018-05-07T02:13:01.892Z,97.14
2018-05-07T02:14:07.967Z,97.81
2018-05-07T02:15:15.214Z,97.75
2018-05-07T02:16:21.469Z,97.64
2018-05-07T02:17:27.715Z,97.59
2018-05-07T02:18:35.561Z,97.31
2018-05-07T02:19:41.795Z,96.56
2018-05-07T02:20:51.577Z,95.89
2018-05-07T02:21:57.790Z,96.40
2018-05-07T02:23:04.009Z,95.75
2018-05-07T02:24:10.235Z,96.41
2018-05-07T02:25:16.423Z,95.50
2018-05-07T02:26:22.734Z,95.23
2018-05-07T02:27:29.579Z,95.47
2018-05-07T02:28:36.401Z,95.39
2018-05-07T02:29:42.618Z,96.74
2018-05-07T02:30:48.880Z,96.42
2018-05-07T02:31:55.105Z,95.95
2018-05-07T02:33:01.799Z,96.11
2018-05-07T02:34:08.149Z,96.68
2018-05-07T02:35:15.347Z,96.03
2018-05-07T02:36:21.487Z,95.82
2018-05-07T02:37:27.696Z,95.90
2018-05-07T02:38:33.815Z,95.74
2018-05-07T02:39:40.146Z,95.71
2018-05-07T02:40:48.516Z,95.60
2018-05-07T02:41:56.440Z,95.20
2018-05-07T02:43:03.392Z,95.43
2018-05-07T02:44:10.497Z,95.35
2018-05-07T02:45:17.409Z,96.44
2018-05-07T02:46:23.607Z,96.74
2018-05-07T02:47:30.004Z,96.54
2018-05-07T02:48:36.255Z,96.98
2018-05-07T02:49:42.562Z,97.30
2018-05-07T02:50:48.779Z,97.43
2018-05-07T02:51:55.055Z,98.16
2018-05-07T02:53:01.299Z,97.69
2018-05-07T02:54:07.518Z,96.92
2018-05-07T02:55:13.770Z,96.08
2018-05-07T02:56:19.668Z,96.78
2018-05-07T02:57:25.911Z,96.76
2018-05-07T02:58:32.589Z,96.33
2018-05-07T02:59:38.727Z,96.07
2018-05-07T03:00:45.068Z,96.12
2018-05-07T03:01:51.371Z,95.93
2018-05-07T03:02:58.154Z,95.69
2018-05-07T03:04:04.937Z,95.78
2018-05-07T03:05:11.215Z,95.47
2018-05-07T03:06:17.438Z,96.29
2018-05-07T03:07:24.250Z,96.38
2018-05-07T03:08:30.463Z,96.00
2018-05-07T03:09:36.001Z,96.55
2018-05-07T03:10:42.359Z,96.17
2018-05-07T03:11:48.575Z,95.98
2018-05-07T03:12:54.439Z,96.41
2018-05-07T03:14:00.715Z,95.83
2018-05-07T03:15:07.009Z,96.61
2018-05-07T03:16:13.223Z,96.36
2018-05-07T03:17:19.269Z,95.86
2018-05-07T03:18:25.541Z,96.24
2018-05-07T03:19:31.840Z,95.91
2018-05-07T03:20:37.742Z,96.11
2018-05-07T03:21:43.963Z,96.08
2018-05-07T03:22:52.229Z,96.52
2018-05-07T03:24:01.491Z,96.77
2018-05-07T03:25:07.490Z,96.84
2018-05-07T03:26:13.446Z,96.31
2018-05-07T03:27:19.703Z,96.38
2018-05-07T03:28:25.627Z,96.81
2018-05-07T03:29:31.895Z,96.64
2018-05-07T03:30:39.065Z,96.91
2018-05-07T03:31:45.255Z,96.52
2018-05-07T03:32:52.083Z,96.90
2018-05-07T03:33:59.336Z,96.57
2018-05-07T03:35:06.542Z,96.00
2018-05-07T03:36:12.411Z,96.42
2018-05-07T03:37:18.661Z,96.25
2018-05-07T03:38:24.857Z,96.68
2018-05-07T03:39:31.622Z,96.90
2018-05-07T03:40:37.814Z,97.47
2018-05-07T03:41:44.026Z,97.60
2018-05-07T03:42:50.326Z,97.59
2018-05-07T03:44:01.237Z,97.01
2018-05-07T03:45:10.841Z,96.80
2018-05-07T03:46:16.454Z,97.00
2018-05-07T03:47:22.714Z,96.90
2018-05-07T03:48:29.430Z,97.47
2018-05-07T03:49:35.670Z,97.19
2018-05-07T03:50:42.023Z,96.80
2018-05-07T03:51:48.316Z,96.71
2018-05-07T03:52:56.216Z,96.78
2018-05-07T03:54:03.304Z,97.72
2018-05-07T03:55:10.126Z,97.97
2018-05-07T03:56:16.280Z,98.48
2018-05-07T03:57:22.625Z,98.64
2018-05-07T03:58:28.830Z,98.57
2018-05-07T03:59:35.052Z,98.02
2018-05-07T04:00:41.588Z,98.47
2018-05-07T04:01:47.862Z,98.25
2018-05-07T04:02:54.173Z,97.56
2018-05-07T04:04:00.383Z,97.12
2018-05-07T04:05:06.741Z,97.36
2018-05-07T04:06:13.462Z,98.49
2018-05-07T04:07:19.095Z,97.90
2018-05-07T04:08:24.772Z,97.14
2018-05-07T04:09:31.053Z,96.57
2018-05-07T04:10:37.368Z,96.37
2018-05-07T04:11:43.638Z,96.23
2018-05-07T04:12:49.630Z,96.54
2018-05-07T04:13:55.881Z,96.27
2018-05-07T04:15:02.243Z,96.29
2018-05-07T04:16:08.480Z,95.56
2018-05-07T04:19:04.208Z,95.62
2018-05-07T04:20:21.525Z,95.55
2018-05-07T04:21:27.018Z,96.88
2018-05-07T04:22:44.072Z,95.96
2018-05-07T04:24:01.647Z,95.77
2018-05-07T04:25:07.811Z,95.11
2018-05-07T04:26:15.074Z,96.08
2018-05-07T04:27:21.222Z,96.53
2018-05-07T04:28:28.178Z,95.98
2018-05-07T04:29:34.487Z,96.95
2018-05-07T04:30:40.566Z,98.06
2018-05-07T04:31:46.894Z,96.76
2018-05-07T04:32:53.842Z,96.00
2018-05-07T04:33:59.841Z,95.71
2018-05-07T04:35:06.120Z,96.61
2018-05-07T04:36:12.118Z,96.63
2018-05-07T04:37:19.012Z,96.53
2018-05-07T04:38:25.958Z,96.81
2018-05-07T04:39:32.186Z,96.25
2018-05-07T04:40:38.419Z,96.65
2018-05-07T04:41:44.695Z,97.07
2018-05-07T04:42:50.925Z,96.58
2018-05-07T04:43:57.446Z,96.15
2018-05-07T04:45:03.688Z,95.50
2018-05-07T04:46:09.978Z,95.45
2018-05-07T04:47:16.372Z,95.56
2018-05-07T04:48:22.682Z,97.50
2018-05-07T04:49:28.908Z,96.19
2018-05-07T04:50:35.215Z,96.06
2018-05-07T04:51:41.462Z,96.72
2018-05-07T04:52:47.927Z,97.12
2018-05-07T04:53:54.282Z,96.12
2018-05-07T04:55:00.625Z,95.08
2018-05-07T04:56:06.725Z,95.59
2018-05-07T04:57:12.710Z,94.65
2018-05-07T04:58:18.966Z,95.27
2018-05-07T04:59:24.888Z,96.32
2018-05-07T05:00:31.115Z,95.43
2018-05-07T05:01:37.186Z,93.99
2018-05-07T05:02:43.494Z,94.21
2018-05-07T05:03:52.047Z,93.38
2018-05-07T05:04:58.239Z,92.58
2018-05-07T05:06:04.505Z,92.88
2018-05-07T05:07:10.760Z,92.83
2018-05-07T05:08:17.078Z,92.74
2018-05-07T05:09:27.177Z,92.23
2018-05-07T05:10:33.367Z,92.54
2018-05-07T05:11:39.345Z,93.35
2018-05-07T05:12:45.534Z,91.87
2018-05-07T05:13:51.599Z,92.36
2018-05-07T05:14:57.850Z,92.10
2018-05-07T05:16:04.075Z,89.58
2018-05-07T05:17:10.043Z,86.22
2018-05-07T05:18:16.244Z,84.40
2018-05-07T05:19:22.479Z,86.50
2018-05-07T05:20:28.682Z,86.63
2018-05-07T05:21:34.955Z,88.51
2018-05-07T05:22:41.697Z,87.38
2018-05-07T05:23:47.963Z,85.57
2018-05-07T05:24:54.300Z,84.87
2018-05-07T05:26:00.599Z,85.04
2018-05-07T05:27:07.584Z,84.77
2018-05-07T05:28:13.798Z,84.12
2018-05-07T05:29:21.142Z,83.99
2018-05-07T05:30:27.369Z,84.09
2018-05-07T05:31:33.585Z,83.61
2018-05-07T05:32:40.374Z,84.12
2018-05-07T05:33:46.583Z,84.67
2018-05-07T05:34:52.589Z,83.55
2018-05-07T05:35:58.775Z,82.95
2018-05-07T05:37:04.904Z,82.73
2018-05-07T05:38:11.143Z,83.46
2018-05-07T05:39:17.434Z,82.18
2018-05-07T05:40:23.751Z,83.37
2018-05-07T05:41:30.090Z,82.10
2018-05-07T05:42:36.368Z,80.69
2018-05-07T05:43:42.653Z,81.71
2018-05-07T05:44:49.514Z,82.31
2018-05-07T05:45:55.980Z,82.24
2018-05-07T05:47:02.224Z,80.97
2018-05-07T05:48:08.442Z,80.37
2018-05-07T05:49:14.660Z,81.30
2018-05-07T05:50:20.923Z,81.18
2018-05-07T05:51:28.161Z,78.21
2018-05-07T05:52:34.426Z,78.05
2018-05-07T05:53:40.736Z,78.27
2018-05-07T05:54:46.803Z,77.95
2018-05-07T05:55:53.131Z,78.43
2018-05-07T05:56:59.394Z,79.28
2018-05-07T05:58:05.671Z,78.54
2018-05-07T05:59:11.995Z,80.29
2018-05-07T06:00:18.274Z,78.28
2018-05-07T06:01:24.492Z,77.14
2018-05-07T06:02:30.831Z,77.17
2018-05-07T06:03:37.309Z,77.32
2018-05-07T06:04:43.542Z,75.07
2018-05-07T06:05:49.701Z,75.97
2018-05-07T06:06:55.667Z,76.83
2018-05-07T06:08:02.054Z,77.51
2018-05-07T06:09:08.264Z,77.17
2018-05-07T06:10:14.355Z,77.32
2018-05-07T06:11:23.388Z,78.12
2018-05-07T06:12:34.868Z,76.12
2018-05-07T06:13:41.963Z,74.07
2018-05-07T06:14:49.276Z,74.04
2018-05-07T06:15:55.564Z,75.08
2018-05-07T06:17:02.149Z,75.94
2018-05-07T06:18:08.369Z,76.87
2018-05-07T06:19:14.707Z,76.71
2018-05-07T06:20:21.006Z,77.08
2018-05-07T06:21:27.202Z,76.44
2018-05-07T06:22:33.463Z,75.39
2018-05-07T06:23:39.952Z,75.39
2018-05-07T06:24:46.248Z,76.00
2018-05-07T06:25:52.466Z,76.70
2018-05-07T06:26:58.791Z,75.82
2018-05-07T06:28:04.745Z,74.60
2018-05-07T06:29:10.958Z,76.09
2018-05-07T06:30:17.205Z,75.26
2018-05-07T06:31:23.501Z,74.77
2018-05-07T06:32:29.756Z,73.61
2018-05-07T06:33:36.017Z,73.28
2018-05-07T06:34:42.331Z,73.11
2018-05-07T06:35:48.310Z,72.30
2018-05-07T06:36:55.543Z,74.77
2018-05-07T06:38:01.715Z,73.90
2018-05-07T06:39:07.993Z,73.95
2018-05-07T06:40:14.283Z,72.05
2018-05-07T06:41:20.517Z,70.33
2018-05-07T06:42:27.155Z,71.87
2018-05-07T06:43:34.286Z,71.42
2018-05-07T06:44:40.569Z,72.65
2018-05-07T06:45:46.821Z,71.42
2018-05-07T06:46:53.357Z,70.89
2018-05-07T06:47:59.723Z,71.11
2018-05-07T06:49:06.026Z,72.61
2018-05-07T06:50:12.231Z,70.19
2018-05-07T06:51:18.549Z,69.49
2018-05-07T06:52:25.520Z,69.47
2018-05-07T06:53:32.318Z,70.04
2018-05-07T06:54:38.553Z,70.08
2018-05-07T06:55:44.842Z,69.59
2018-05-07T06:56:51.122Z,68.75
2018-05-07T06:57:57.448Z,68.65
2018-05-07T06:59:03.259Z,68.43
2018-05-07T07:00:08.799Z,69.05
2018-05-07T07:01:15.050Z,69.03
2018-05-07T07:02:21.320Z,69.05
2018-05-07T07:03:27.770Z,68.69
2018-05-07T07:04:33.981Z,69.02
2018-05-07T07:05:40.216Z,68.18
2018-05-07T07:06:46.383Z,68.24
2018-05-07T07:07:53.305Z,68.72
2018-05-07T07:08:59.535Z,68.05
2018-05-07T07:10:05.757Z,70.28
2018-05-07T07:11:11.948Z,68.60
2018-05-07T07:12:19.083Z,68.13
2018-05-07T07:13:25.320Z,69.06
2018-05-07T07:14:35.970Z,68.31
2018-05-07T07:15:42.194Z,67.28
2018-05-07T07:16:48.411Z,67.63
2018-05-07T07:17:54.682Z,68.34
2018-05-07T07:19:01.594Z,66.89
2018-05-07T07:20:07.875Z,67.98
2018-05-07T07:21:14.100Z,67.41
2018-05-07T07:22:20.430Z,68.17
2018-05-07T07:23:26.743Z,66.49
2018-05-07T07:24:33.051Z,66.68
2018-05-07T07:25:39.331Z,67.03
2018-05-07T07:26:45.571Z,67.95
2018-05-07T07:27:51.958Z,67.06
2018-05-07T07:28:58.522Z,68.32
2018-05-07T07:30:04.129Z,68.53
2018-05-07T07:31:10.382Z,66.87
2018-05-07T07:32:16.697Z,67.26
2018-05-07T07:33:22.939Z,67.35
2018-05-07T07:34:29.199Z,65.09
2018-05-07T07:35:35.416Z,64.93
2018-05-07T07:36:41.735Z,64.82
2018-05-07T07:37:47.967Z,65.92
2018-05-07T07:38:54.167Z,64.00
2018-05-07T07:40:00.536Z,65.80
2018-05-07T07:41:06.884Z,65.38
2018-05-07T07:42:13.094Z,64.40
2018-05-07T07:43:19.345Z,63.69
2018-05-07T07:44:26.621Z,63.40
2018-05-07T07:45:33.151Z,63.52
2018-05-07T07:46:39.490Z,61.60
2018-05-07T07:47:45.709Z,61.03
2018-05-07T07:48:51.975Z,61.74
2018-05-07T07:49:57.931Z,62.40
2018-05-07T07:51:04.315Z,61.66
2018-05-07T07:52:10.594Z,61.71
2018-05-07T07:53:27.126Z,60.25
2018-05-07T07:54:33.494Z,60.25
2018-05-07T07:55:39.664Z,59.77
2018-05-07T07:56:46.666Z,60.60
2018-05-07T07:57:52.948Z,60.33
2018-05-07T07:58:59.226Z,60.27
2018-05-07T08:00:05.440Z,60.45
2018-05-07T08:01:11.632Z,60.38
2018-05-07T08:02:17.861Z,59.95
2018-05-07T08:03:24.084Z,59.82
2018-05-07T08:04:30.286Z,58.27
2018-05-07T08:05:36.496Z,58.63
2018-05-07T08:06:42.699Z,59.42
2018-05-07T08:07:48.677Z,58.51
2018-05-07T08:08:55.039Z,59.78
2018-05-07T08:10:01.201Z,57.53
2018-05-07T08:11:07.811Z,57.51
2018-05-07T08:12:14.090Z,57.38
2018-05-07T08:13:20.475Z,57.16
2018-05-07T08:14:26.684Z,55.70
2018-05-07T08:15:33.420Z,56.20
2018-05-07T08:16:42.037Z,56.15
2018-05-07T08:17:49.295Z,56.12
2018-05-07T08:18:56.298Z,57.28
2018-05-07T08:20:02.523Z,55.28
2018-05-07T08:21:08.847Z,55.99
2018-05-07T08:22:15.054Z,56.13
2018-05-07T08:23:21.262Z,56.49
2018-05-07T08:24:27.487Z,56.15
2018-05-07T08:25:33.770Z,56.30
2018-05-07T08:26:40.014Z,55.26
2018-05-07T08:27:46.190Z,57.25
2018-05-07T08:28:52.447Z,57.40
2018-05-07T08:29:58.732Z,56.04
2018-05-07T08:31:05.524Z,55.83
2018-05-07T08:32:11.705Z,54.73
2018-05-07T08:33:17.972Z,55.41
2018-05-07T08:34:24.320Z,54.79
2018-05-07T08:35:30.593Z,54.06
2018-05-07T08:36:36.918Z,54.74
2018-05-07T08:37:44.185Z,54.82
2018-05-07T08:38:50.522Z,52.64
2018-05-07T08:39:57.591Z,52.52
2018-05-07T08:41:03.797Z,51.55
2018-05-07T08:42:09.815Z,52.13
2018-05-07T08:43:16.113Z,53.55
2018-05-07T08:44:22.466Z,52.72
2018-05-07T08:45:28.757Z,53.35
2018-05-07T08:46:35.938Z,52.02
2018-05-07T08:47:42.362Z,52.50
2018-05-07T08:48:48.736Z,50.95
2018-05-07T08:49:55.020Z,51.20
2018-05-07T08:51:01.239Z,51.67
2018-05-07T08:52:07.729Z,51.67
2018-05-07T08:53:14.032Z,51.72
2018-05-07T08:54:20.485Z,51.71
2018-05-07T08:55:26.880Z,51.85
2018-05-07T08:56:33.099Z,52.35
2018-05-07T08:57:39.423Z,52.20
2018-05-07T08:58:45.371Z,51.03
2018-05-07T08:59:52.614Z,54.08
2018-05-07T09:00:58.885Z,53.04
2018-05-07T09:02:05.670Z,52.07
2018-05-07T09:03:12.050Z,50.80
2018-05-07T09:04:19.281Z,51.08
2018-05-07T09:05:25.517Z,50.46
2018-05-07T09:06:31.737Z,50.55
2018-05-07T09:07:37.942Z,51.52
2018-05-07T09:08:44.134Z,51.28
2018-05-07T09:09:50.381Z,51.60
2018-05-07T09:10:57.335Z,52.86
2018-05-07T09:12:03.359Z,51.25
2018-05-07T09:13:09.608Z,51.07
2018-05-07T09:14:15.844Z,50.79
2018-05-07T09:15:22.123Z,50.57
2018-05-07T09:16:28.435Z,50.59
2018-05-07T09:17:35.444Z,50.47
2018-05-07T09:18:41.686Z,51.39
2018-05-07T09:19:48.024Z,50.95
2018-05-07T09:20:55.491Z,51.76
2018-05-07T09:22:01.745Z,52.04
2018-05-07T09:23:08.672Z,51.12
2018-05-07T09:24:14.887Z,50.07
2018-05-07T09:25:21.167Z,50.71
2018-05-07T09:26:27.415Z,50.60
2018-05-07T09:27:33.638Z,48.90
2018-05-07T09:28:39.895Z,50.19
2018-05-07T09:29:46.094Z,49.98
2018-05-07T09:30:52.354Z,49.57
2018-05-07T09:31:58.647Z,48.17
2018-05-07T09:33:04.515Z,49.12
2018-05-07T09:34:10.790Z,48.52
2018-05-07T09:35:17.077Z,48.50
2018-05-07T09:36:23.457Z,48.92
2018-05-07T09:37:29.691Z,49.28
2018-05-07T09:38:36.791Z,49.30
2018-05-07T09:39:43.614Z,50.02
2018-05-07T09:40:55.496Z,49.64
2018-05-07T09:42:02.970Z,49.38
2018-05-07T09:43:09.234Z,49.97
2018-05-07T09:44:15.721Z,49.72
2018-05-07T09:45:22.718Z,50.68
2018-05-07T09:46:29.012Z,49.68
2018-05-07T09:47:35.209Z,49.74
2018-05-07T09:48:41.415Z,47.30
2018-05-07T09:49:47.675Z,48.38
2018-05-07T09:50:53.982Z,47.72
2018-05-07T09:52:00.254Z,47.56
2018-05-07T09:53:06.459Z,48.52
2018-05-07T09:54:13.683Z,47.32
2018-05-07T09:55:20.574Z,47.15
2018-05-07T09:56:27.507Z,45.71
2018-05-07T09:57:33.464Z,46.79
2018-05-07T10:00:14.417Z,46.81
2018-05-07T10:01:20.455Z,45.77
2018-05-07T10:02:26.474Z,46.39
2018-05-07T10:03:32.942Z,45.31
2018-05-07T10:04:40.340Z,45.95
2018-05-07T10:05:47.085Z,47.10
2018-05-07T10:06:53.411Z,46.44
2018-05-07T10:07:59.624Z,48.37
2018-05-07T10:09:05.134Z,45.62
2018-05-07T10:10:11.355Z,46.26
2018-05-07T10:11:17.875Z,45.07
2018-05-07T10:12:24.171Z,45.59
2018-05-07T10:13:30.422Z,45.30
2018-05-07T10:14:36.652Z,44.92
2018-05-07T10:15:42.997Z,44.49
2018-05-07T10:16:49.340Z,44.35
2018-05-07T10:17:55.613Z,45.34
2018-05-07T10:19:01.820Z,45.21
2018-05-07T10:20:08.055Z,45.72
2018-05-07T10:21:15.064Z,45.91
2018-05-07T10:22:24.484Z,45.16
2018-05-07T10:23:33.122Z,44.96
2018-05-07T10:24:39.558Z,46.09
2018-05-07T10:25:45.855Z,45.00
2018-05-07T10:26:52.121Z,44.21
2018-05-07T10:27:58.362Z,43.56
2018-05-07T10:29:04.207Z,44.33
2018-05-07T10:30:10.508Z,46.45
2018-05-07T10:31:16.566Z,43.31
2018-05-07T10:32:22.876Z,44.42
2018-05-07T10:33:29.105Z,42.69
2018-05-07T10:34:35.300Z,44.56
2018-05-07T10:35:41.543Z,44.00
2018-05-07T10:36:48.043Z,42.59
2018-05-07T10:37:54.374Z,42.90
2018-05-07T10:39:00.642Z,45.32
2018-05-07T10:40:06.989Z,44.07
2018-05-07T10:41:13.275Z,42.97
2018-05-07T10:42:19.599Z,42.88
2018-05-07T10:43:31.191Z,42.31
2018-05-07T10:44:43.727Z,41.52
2018-05-07T10:45:50.025Z,40.91
2018-05-07T10:46:56.335Z,42.81
2018-05-07T10:48:02.599Z,42.12
2018-05-07T10:49:08.954Z,41.56
2018-05-07T10:50:15.478Z,42.50
2018-05-07T10:51:22.480Z,43.44
2018-05-07T10:52:30.587Z,42.06
2018-05-07T10:53:36.835Z,42.83
2018-05-07T10:54:43.051Z,44.19
2018-05-07T10:55:50.082Z,44.68
2018-05-07T10:56:56.472Z,45.58
2018-05-07T10:58:02.716Z,47.03
2018-05-07T10:59:09.011Z,45.89
2018-05-07T11:00:15.244Z,45.81
2018-05-07T11:01:21.485Z,45.96
2018-05-07T11:02:27.734Z,46.23
2018-05-07T11:03:33.943Z,46.66
2018-05-07T11:04:40.165Z,47.97
2018-05-07T11:05:46.727Z,46.37
2018-05-07T11:06:52.992Z,45.66
2018-05-07T11:08:00.023Z,45.12
2018-05-07T11:09:06.711Z,46.00
2018-05-07T11:10:12.981Z,45.80
2018-05-07T11:11:19.261Z,47.99
2018-05-07T11:12:25.559Z,47.04
2018-05-07T11:13:32.604Z,47.89
2018-05-07T11:14:39.036Z,45.77
2018-05-07T11:15:45.355Z,45.60
2018-05-07T11:16:51.638Z,45.68
2018-05-07T11:17:57.983Z,47.21
2018-05-07T11:19:04.251Z,45.20
2018-05-07T11:20:10.540Z,47.09
2018-05-07T11:21:16.703Z,45.37
2018-05-07T11:22:22.765Z,45.32
2018-05-07T11:23:29.724Z,45.42
2018-05-07T11:24:38.444Z,45.41
2018-05-07T11:25:44.647Z,44.71
2018-05-07T11:26:50.895Z,42.68
2018-05-07T11:27:57.103Z,42.39
2018-05-07T11:29:03.336Z,42.85
2018-05-07T11:30:09.634Z,44.65
2018-05-07T11:31:15.623Z,43.37
2018-05-07T11:32:21.625Z,44.36
2018-05-07T11:33:27.844Z,43.98
2018-05-07T11:34:34.089Z,44.32
2018-05-07T11:35:40.411Z,44.58
2018-05-07T11:36:46.639Z,45.06
2018-05-07T11:37:52.539Z,44.89
2018-05-07T11:38:58.934Z,44.87
2018-05-07T11:40:05.220Z,43.75
2018-05-07T11:41:11.593Z,43.59
2018-05-07T11:42:17.864Z,43.91
2018-05-07T11:43:24.831Z,44.49
2018-05-07T11:44:31.806Z,45.17
2018-05-07T11:45:39.109Z,44.00
2018-05-07T11:46:45.271Z,43.38
2018-05-07T11:47:51.262Z,44.94
2018-05-07T11:48:58.735Z,45.34
2018-05-07T11:50:06.376Z,43.91
2018-05-07T11:51:13.168Z,43.06
2018-05-07T11:52:19.456Z,43.59
2018-05-07T11:53:25.663Z,43.32
2018-05-07T11:54:31.884Z,42.43
2018-05-07T11:55:38.121Z,42.79
2018-05-07T11:56:44.391Z,44.91
2018-05-07T11:57:50.602Z,43.74
2018-05-07T11:58:57.629Z,43.40
2018-05-07T12:00:03.776Z,44.07
2018-05-07T12:01:10.084Z,42.32
2018-05-07T12:02:16.424Z,42.95
2018-05-07T12:03:22.883Z,44.37
2018-05-07T12:04:29.094Z,42.73
2018-05-07T12:05:35.982Z,42.14
2018-05-07T12:06:44.815Z,41.93
2018-05-07T12:07:50.987Z,42.35
2018-05-07T12:08:57.247Z,41.35
2018-05-07T12:10:03.379Z,41.90
2018-05-07T12:11:09.655Z,42.05
2018-05-07T12:12:20.982Z,42.37
2018-05-07T12:13:27.286Z,41.98
2018-05-07T12:14:34.230Z,42.72
2018-05-07T12:15:41.837Z,41.62
2018-05-07T12:16:48.347Z,42.50
2018-05-07T12:17:54.430Z,42.76
2018-05-07T12:19:00.694Z,41.24
2018-05-07T12:20:06.986Z,40.92
2018-05-07T12:21:13.002Z,40.54
2018-05-07T12:22:19.293Z,41.03
2018-05-07T12:23:25.523Z,40.68
2018-05-07T12:24:31.590Z,41.59
2018-05-07T12:25:37.887Z,43.92
2018-05-07T12:26:43.823Z,41.66
2018-05-07T12:27:50.240Z,41.52
2018-05-07T12:28:56.483Z,41.93
2018-05-07T12:30:02.807Z,41.63
2018-05-07T12:31:09.998Z,39.78
2018-05-07T12:32:17.651Z,39.53
2018-05-07T12:33:23.839Z,39.32
2018-05-07T12:34:30.030Z,39.98
2018-05-07T12:35:36.263Z,39.86
2018-05-07T12:36:43.798Z,40.97
2018-05-07T12:37:50.135Z,39.26
2018-05-07T12:38:56.396Z,40.02
2018-05-07T12:40:02.647Z,38.89
2018-05-07T12:41:08.974Z,38.44
2018-05-07T12:42:15.247Z,40.82
2018-05-07T12:43:21.483Z,41.57
2018-05-07T12:44:27.787Z,39.44
2018-05-07T12:45:34.008Z,39.47
2018-05-07T12:46:40.084Z,38.13
2018-05-07T12:47:46.560Z,38.98
2018-05-07T12:48:56.351Z,38.42
2018-05-07T12:50:02.509Z,38.58
2018-05-07T12:51:08.738Z,38.70
2018-05-07T12:52:14.963Z,40.30
2018-05-07T12:53:21.249Z,37.75
2018-05-07T12:54:27.630Z,38.60
2018-05-07T12:55:33.894Z,38.04
2018-05-07T12:56:40.228Z,38.08
2018-05-07T12:57:46.527Z,37.38
2018-05-07T12:58:52.826Z,37.77
2018-05-07T12:59:59.114Z,37.99
2018-05-07T13:01:05.348Z,38.98
2018-05-07T13:02:11.556Z,38.48
2018-05-07T13:03:17.514Z,37.79
2018-05-07T13:04:23.776Z,38.48
2018-05-07T13:05:30.085Z,38.72
2018-05-07T13:06:36.534Z,38.36
2018-05-07T13:07:42.697Z,38.15
2018-05-07T13:08:48.585Z,36.61
2018-05-07T13:09:54.795Z,36.35
2018-05-07T13:11:00.800Z,36.14
2018-05-07T13:12:07.138Z,36.83
2018-05-07T13:13:13.450Z,36.56
2018-05-07T13:14:19.966Z,38.02
2018-05-07T13:15:26.287Z,36.64
2018-05-07T13:16:32.597Z,36.31
2018-05-07T13:17:38.803Z,36.10
2018-05-07T13:18:45.121Z,35.86
2018-05-07T13:19:51.398Z,35.25
2018-05-07T13:20:57.710Z,36.76
2018-05-07T13:22:05.177Z,35.70
2018-05-07T13:23:11.428Z,38.14
2018-05-07T13:24:17.323Z,35.53
2018-05-07T13:25:23.606Z,37.26
2018-05-07T13:26:29.931Z,37.98
2018-05-07T13:27:36.306Z,35.33
2018-05-07T13:28:42.543Z,35.84
2018-05-07T13:29:48.835Z,35.42
2018-05-07T13:30:55.320Z,35.81
2018-05-07T13:32:02.136Z,36.63
2018-05-07T13:33:08.759Z,38.66
2018-05-07T13:34:15.116Z,35.65
2018-05-07T13:35:21.316Z,35.25
2018-05-07T13:36:27.690Z,35.64
2018-05-07T13:37:34.045Z,36.04
2018-05-07T13:38:41.271Z,35.65
2018-05-07T13:39:47.584Z,36.06
2018-05-07T13:40:53.782Z,36.33
2018-05-07T13:42:00.027Z,34.32
2018-05-07T13:43:06.321Z,34.21
2018-05-07T13:44:12.539Z,34.22
2018-05-07T13:45:18.845Z,34.61
2018-05-07T13:46:26.317Z,34.40
2018-05-07T13:47:33.266Z,33.89
2018-05-07T13:48:39.550Z,34.89
2018-05-07T13:49:45.821Z,34.07
2018-05-07T13:50:52.024Z,34.90
2018-05-07T13:51:58.265Z,34.91
2018-05-07T13:53:04.267Z,35.08
2018-05-07T13:54:10.389Z,35.35
2018-05-07T13:55:16.683Z,34.42
2018-05-07T13:56:23.016Z,34.86
2018-05-07T13:57:29.335Z,34.40
2018-05-07T13:58:35.776Z,35.17
2018-05-07T13:59:42.040Z,34.62
2018-05-07T14:00:48.171Z,35.35
2018-05-07T14:01:54.530Z,35.36
2018-05-07T14:03:00.771Z,35.54
2018-05-07T14:04:07.158Z,34.94
2018-05-07T14:05:13.367Z,35.50
2018-05-07T14:06:19.572Z,35.46
2018-05-07T14:07:25.826Z,35.97
2018-05-07T14:08:32.173Z,35.36
2018-05-07T14:09:39.183Z,34.84
2018-05-07T14:10:45.450Z,35.51
2018-05-07T14:11:51.664Z,35.39
2018-05-07T14:12:57.864Z,35.74
2018-05-07T14:14:05.268Z,35.65
2018-05-07T14:15:12.125Z,35.34
2018-05-07T14:16:18.341Z,35.88
2018-05-07T14:17:24.587Z,35.55
2018-05-07T14:18:30.888Z,35.89
2018-05-07T14:19:37.181Z,36.80
2018-05-07T14:20:43.374Z,36.54